Airfield :
LOGIN :

Register | Disclaimer

   EN    FR    IT 

 










Legend :    VFR   Marginal VFR   IFR   Intensive IFR   Very Intensive IFR
Visi :
Ceiling :
>= 8 km
>= 3000ft
5 to 8 km
1000 to 3000 ft
1500m to 5 km
500 to 1000 ft
800 to 1500m
200 to 500 ft
< 800m
< 200 ft
Symbols :   Thunderstorms  Fog  Heavy snow  Heavy precipitations  Wind > 20 kt
SIGMETs :     Misc.  Thunderstorms  Icing  Turbulence  Mountain Waves  Volcanic Ashes






- Airport Elevation : 479 ft
- IATA code : DOL


LFRG - Deauville

CURRENT METAR :
  • 282200Z AUTO 23011KT 200V260 9999 -RA FEW018 BKN052 BKN066 10/08 Q1013

EXPIRED METARs :
  • 282130Z AUTO 24010KT 200V270 9999 -RA FEW037 SCT045 OVC054 10/08 Q1012
  • 282100Z AUTO 24010KT 9999 -RA FEW047/// BKN060/// OVC072/// ///CB 10/09 Q1012 TEMPO SHRA BECMG 21015G25KT
  • 282030Z AUTO 23012KT 200V260 9999 -RA BKN029/// BKN042/// BKN050/// ///TCU 10/09 Q1011 TEMPO SHRA BECMG 21015G25KT
  • 282000Z AUTO 25012KT 9999 FEW027/// SCT032/// OVC052/// ///TCU 11/09 Q1011 TEMPO 4000 SHRA SCT020CB BKN025TCU BECMG 21015G25KT
  • 281930Z AUTO 25015G25KT 9999 FEW017/// SCT034/// BKN041/// ///CB 10/09 Q1011 TEMPO 4000 SHRA

TAF TAF LFRG
Valid from the 28 at 15:00 until the 29 at 00:00 UTC


281400Z 2815/2824 21015G25KT 9999 SCT025 BKN040
TEMPO 2815/2821 22018G30KT 4000 SHRA SCT020CB BKN025TCU
PROB30
TEMPO 2815/2818 2000 TSRA BKN018CB
TEMPO 2821/2824 5000 SHRA BKN025TCU
ATIS : +33 2 31 65 65 36



MET'MAP, your aeronautical weather chart ! - Copyright ORBIFLY December 2007 - Disclaimer

ORBIFLY MET'MAP TEAM :

Programming & Development : Alexandra Zaïnal
Concept & original design : Baudouin d'Aumeries
Assistance for programming : Marc-Olivier Méhu
Technical & hardware support : Manuel Goepfert

Contact : metmap@orbifly.com




SOURCES & CREDITS :

   NOAA